Terminal Aerodrome Forecast
Issued by NWS Newport/Morehead City, NC

Home | Current Version | Previous Version | Text Only | Print | Product List | Glossary On
Versions: 1 2 3 4 5 6 7 8 9 10 11 12 13 14 15 16 17 18 19
000
FTUS42 KMHX 060540
TAFEWN
TAF
KEWN 060540Z 0606/0706 02015G22KT P6SM FEW009 OVC015
     FM061200 01014G22KT P6SM SCT025 BKN035
     FM061800 02010KT P6SM SCT040
     FM070200 02003KT P6SM SKC=

USA.gov is the U.S. government's official web portal to all federal, state and local government web resources and services.